Kosho Maru No.2 — JD2440 — position and weather

sailwx.info

Track history (hours):
 
Tides and Currents Weather Stations Pressure Air Temp Water Temp Dewpoint Dewpoint Depression Visibility Wind Speed Wind Dir Waves Ship Positions

Kosho Maru No.2

Last reported at 2017-Oct-16 11:44 UTC. Time now 2017-Oct-18 15:18 UTC.
Position N 34°35' E 134°54'.

Length 75 m; draft 4.6 m.

Type: Cargo ship. MMSI: 431000218.

Date/timePositionNaut miles runAvg speedWind from/ knotsBaromVisibWave heightAir tempDewpointWater temp
2017-Oct-16 11:44N 34°35' E 134°54'412.5
2017-Oct-16 11:22N 34°37' E 134°59'512.7
2017-Oct-16 11:00N 34°36' E 135°04'612.3
2017-Oct-16 10:30N 34°36' E 135°12'612.3
2017-Oct-16 10:00N 34°36' E 135°19'7 0.2
2017-Oct-15 01:15N 34°35' E 135°28'1 1.8
2017-Oct-15 00:55N 34°35' E 135°27'4 9.3
2017-Oct-15 00:30N 34°36' E 135°23'510.7
2017-Oct-15 00:00N 34°36' E 135°16'510.9
2017-Oct-14 23:30N 34°35' E 135°10'611.2
2017-Oct-14 23:00N 34°36' E 135°03'511.0
2017-Oct-14 22:30N 34°36' E 134°56'  
2017-Oct-12 09:31N 34°36' E 134°54'211.5
2017-Oct-12 09:19N 34°37' E 134°57'4 9.7
2017-Oct-12 08:56N 34°37' E 135°01'510.8
2017-Oct-12 08:30N 34°36' E 135°07'612.4
2017-Oct-12 08:00N 34°37' E 135°14'612.5
2017-Oct-12 07:30N 34°40' E 135°21'2 4.4
2017-Oct-12 06:59N 34°41' E 135°23'0 0.0
2017-Oct-12 06:30N 34°41' E 135°23'0 0.0
2017-Oct-12 06:00N 34°41' E 135°23'0 0.0
2017-Oct-12 05:30N 34°41' E 135°23'0 0.0
2017-Oct-12 05:00N 34°41' E 135°23'0 0.0
2017-Oct-12 04:26N 34°41' E 135°23'0 0.0
2017-Oct-12 03:56N 34°41' E 135°23'0 0.0
2017-Oct-12 03:26N 34°41' E 135°23'0 0.0
2017-Oct-12 02:32N 34°41' E 135°23'0 0.0
2017-Oct-12 02:20N 34°41' E 135°23'0 0.0
2017-Oct-12 01:56N 34°41' E 135°23'0 0.0
2017-Oct-12 01:26N 34°41' E 135°23'0 0.0
2017-Oct-12 00:50N 34°41' E 135°23'0 0.0
2017-Oct-12 00:26N 34°41' E 135°23'0 0.0
2017-Oct-11 23:50N 34°41' E 135°23'0 0.0
2017-Oct-11 23:26N 34°41' E 135°23'0 0.0
2017-Oct-11 22:56N 34°41' E 135°23'0 0.0
2017-Oct-11 22:20N 34°41' E 135°23'0 0.1
2017-Oct-11 21:56N 34°41' E 135°23'0 0.0
2017-Oct-11 21:26N 34°41' E 135°23'0 0.0
2017-Oct-11 20:56N 34°41' E 135°23'0 0.0
2017-Oct-11 20:26N 34°41' E 135°23'0 0.0
2017-Oct-11 19:56N 34°41' E 135°23'0 0.0
2017-Oct-11 19:26N 34°41' E 135°23'0 0.0
2017-Oct-11 18:56N 34°41' E 135°23'0 0.0
2017-Oct-11 18:14N 34°41' E 135°23'0 0.0
2017-Oct-11 17:56N 34°41' E 135°23'0 0.0
2017-Oct-11 17:26N 34°41' E 135°23'0 0.0
2017-Oct-11 16:56N 34°41' E 135°23'3 0.1
2017-Oct-10 23:57N 34°39' E 135°21'0 0.0
2017-Oct-10 23:27N 34°39' E 135°21'0 0.0
2017-Oct-10 22:57N 34°39' E 135°21'0 0.0
2017-Oct-10 22:21N 34°39' E 135°21'0 0.0
2017-Oct-10 22:00N 34°39' E 135°21'0 0.0
2017-Oct-10 21:30N 34°39' E 135°21'0 0.0
2017-Oct-10 21:01N 34°39' E 135°21'0 0.0
2017-Oct-10 20:30N 34°39' E 135°21'0 0.0
2017-Oct-10 20:01N 34°39' E 135°21'0 0.0
2017-Oct-10 19:31N 34°39' E 135°21'0 0.0
2017-Oct-10 19:01N 34°39' E 135°21'0 0.0
2017-Oct-10 18:30N 34°39' E 135°21'0 0.0
2017-Oct-10 18:00N 34°39' E 135°21'0 0.0
2017-Oct-10 17:31N 34°39' E 135°21'0 0.0
2017-Oct-10 17:00N 34°39' E 135°21'0 0.9
2017-Oct-10 16:30N 34°39' E 135°21'510.9
2017-Oct-10 16:01N 34°37' E 135°15'510.9
2017-Oct-10 15:30N 34°35' E 135°08'510.0
2017-Oct-10 15:00N 34°36' E 135°02'9 9.3
2017-Oct-10 13:59N 34°34' E 134°51'  
Track history (hours):
 
Tides and Currents Weather Stations Pressure Air Temp Water Temp Dewpoint Dewpoint Depression Visibility Wind Speed Wind Dir Waves Ship Positions

Kosho Maru No.2

Last reported at 2017-Oct-16 11:44 UTC. Time now 2017-Oct-18 15:18 UTC.
Position N 34°35' E 134°54'.

Length 75 m; draft 4.6 m.

Type: Cargo ship. MMSI: 431000218.

Date/timePositionNaut miles runAvg speedWind from/ knotsBaromVisibWave heightAir tempDewpointWater temp
2017-Oct-16 11:44N 34°35' E 134°54'412.5
2017-Oct-16 11:22N 34°37' E 134°59'512.7
2017-Oct-16 11:00N 34°36' E 135°04'612.3
2017-Oct-16 10:30N 34°36' E 135°12'612.3
2017-Oct-16 10:00N 34°36' E 135°19'7 0.2
2017-Oct-15 01:15N 34°35' E 135°28'1 1.8
2017-Oct-15 00:55N 34°35' E 135°27'4 9.3
2017-Oct-15 00:30N 34°36' E 135°23'510.7
2017-Oct-15 00:00N 34°36' E 135°16'510.9
2017-Oct-14 23:30N 34°35' E 135°10'611.2
2017-Oct-14 23:00N 34°36' E 135°03'511.0
2017-Oct-14 22:30N 34°36' E 134°56'  
2017-Oct-12 09:31N 34°36' E 134°54'211.5
2017-Oct-12 09:19N 34°37' E 134°57'4 9.7
2017-Oct-12 08:56N 34°37' E 135°01'510.8
2017-Oct-12 08:30N 34°36' E 135°07'612.4
2017-Oct-12 08:00N 34°37' E 135°14'612.5
2017-Oct-12 07:30N 34°40' E 135°21'2 4.4
2017-Oct-12 06:59N 34°41' E 135°23'0 0.0
2017-Oct-12 06:30N 34°41' E 135°23'0 0.0
2017-Oct-12 06:00N 34°41' E 135°23'0 0.0
2017-Oct-12 05:30N 34°41' E 135°23'0 0.0
2017-Oct-12 05:00N 34°41' E 135°23'0 0.0
2017-Oct-12 04:26N 34°41' E 135°23'0 0.0
2017-Oct-12 03:56N 34°41' E 135°23'0 0.0
2017-Oct-12 03:26N 34°41' E 135°23'0 0.0
2017-Oct-12 02:32N 34°41' E 135°23'0 0.0
2017-Oct-12 02:20N 34°41' E 135°23'0 0.0
2017-Oct-12 01:56N 34°41' E 135°23'0 0.0
2017-Oct-12 01:26N 34°41' E 135°23'0 0.0
2017-Oct-12 00:50N 34°41' E 135°23'0 0.0
2017-Oct-12 00:26N 34°41' E 135°23'0 0.0
2017-Oct-11 23:50N 34°41' E 135°23'0 0.0
2017-Oct-11 23:26N 34°41' E 135°23'0 0.0
2017-Oct-11 22:56N 34°41' E 135°23'0 0.0
2017-Oct-11 22:20N 34°41' E 135°23'0 0.1
2017-Oct-11 21:56N 34°41' E 135°23'0 0.0
2017-Oct-11 21:26N 34°41' E 135°23'0 0.0
2017-Oct-11 20:56N 34°41' E 135°23'0 0.0
2017-Oct-11 20:26N 34°41' E 135°23'0 0.0
2017-Oct-11 19:56N 34°41' E 135°23'0 0.0
2017-Oct-11 19:26N 34°41' E 135°23'0 0.0
2017-Oct-11 18:56N 34°41' E 135°23'0 0.0
2017-Oct-11 18:14N 34°41' E 135°23'0 0.0
2017-Oct-11 17:56N 34°41' E 135°23'0 0.0
2017-Oct-11 17:26N 34°41' E 135°23'0 0.0
2017-Oct-11 16:56N 34°41' E 135°23'3 0.1
2017-Oct-10 23:57N 34°39' E 135°21'0 0.0
2017-Oct-10 23:27N 34°39' E 135°21'0 0.0
2017-Oct-10 22:57N 34°39' E 135°21'0 0.0
2017-Oct-10 22:21N 34°39' E 135°21'0 0.0
2017-Oct-10 22:00N 34°39' E 135°21'0 0.0
2017-Oct-10 21:30N 34°39' E 135°21'0 0.0
2017-Oct-10 21:01N 34°39' E 135°21'0 0.0
2017-Oct-10 20:30N 34°39' E 135°21'0 0.0
2017-Oct-10 20:01N 34°39' E 135°21'0 0.0
2017-Oct-10 19:31N 34°39' E 135°21'0 0.0
2017-Oct-10 19:01N 34°39' E 135°21'0 0.0
2017-Oct-10 18:30N 34°39' E 135°21'0 0.0
2017-Oct-10 18:00N 34°39' E 135°21'0 0.0
2017-Oct-10 17:31N 34°39' E 135°21'0 0.0
2017-Oct-10 17:00N 34°39' E 135°21'0 0.9
2017-Oct-10 16:30N 34°39' E 135°21'510.9
2017-Oct-10 16:01N 34°37' E 135°15'510.9
2017-Oct-10 15:30N 34°35' E 135°08'510.0
2017-Oct-10 15:00N 34°36' E 135°02'9 9.3
2017-Oct-10 13:59N 34°34' E 134°51'  

Dump ship's entire track history